sensor_id;sensor_type;location;lat;lon;timestamp;P1;durP1;ratioP1;P2;durP2;ratioP2
27201;SDS011;14717;46.924;15.474;2023-02-23T00:01:17;13.57;;;6.93;;
27201;SDS011;14717;46.924;15.474;2023-02-23T00:03:44;14.88;;;7.57;;
27201;SDS011;14717;46.924;15.474;2023-02-23T00:06:10;15.73;;;7.13;;
27201;SDS011;14717;46.924;15.474;2023-02-23T00:08:37;17.35;;;7.82;;
27201;SDS011;14717;46.924;15.474;2023-02-23T00:11:03;13.80;;;7.38;;
27201;SDS011;14717;46.924;15.474;2023-02-23T00:13:33;17.15;;;7.75;;
27201;SDS011;14717;46.924;15.474;2023-02-23T00:16:09;19.00;;;8.23;;
27201;SDS011;14717;46.924;15.474;2023-02-23T00:18:42;14.82;;;7.35;;
27201;SDS011;14717;46.924;15.474;2023-02-23T00:23:46;17.05;;;7.10;;
27201;SDS011;14717;46.924;15.474;2023-02-23T00:26:23;16.08;;;7.30;;
27201;SDS011;14717;46.924;15.474;2023-02-23T00:28:53;13.43;;;6.63;;
27201;SDS011;14717;46.924;15.474;2023-02-23T00:31:19;16.00;;;7.35;;
27201;SDS011;14717;46.924;15.474;2023-02-23T00:33:59;15.43;;;7.13;;
27201;SDS011;14717;46.924;15.474;2023-02-23T00:36:27;14.07;;;7.18;;
27201;SDS011;14717;46.924;15.474;2023-02-23T00:38:55;13.48;;;6.38;;
27201;SDS011;14717;46.924;15.474;2023-02-23T00:41:22;14.18;;;6.32;;
27201;SDS011;14717;46.924;15.474;2023-02-23T00:43:52;15.93;;;6.53;;
27201;SDS011;14717;46.924;15.474;2023-02-23T00:46:19;14.98;;;6.68;;
27201;SDS011;14717;46.924;15.474;2023-02-23T00:48:47;14.15;;;6.50;;
27201;SDS011;14717;46.924;15.474;2023-02-23T00:51:13;13.38;;;6.05;;
27201;SDS011;14717;46.924;15.474;2023-02-23T00:53:43;11.98;;;6.30;;
27201;SDS011;14717;46.924;15.474;2023-02-23T00:56:10;16.27;;;6.65;;
27201;SDS011;14717;46.924;15.474;2023-02-23T00:58:37;17.85;;;6.68;;
27201;SDS011;14717;46.924;15.474;2023-02-23T01:01:09;14.75;;;7.03;;
27201;SDS011;14717;46.924;15.474;2023-02-23T01:03:36;14.25;;;6.45;;
27201;SDS011;14717;46.924;15.474;2023-02-23T01:06:05;13.77;;;6.90;;
27201;SDS011;14717;46.924;15.474;2023-02-23T01:08:34;13.65;;;6.95;;
27201;SDS011;14717;46.924;15.474;2023-02-23T01:11:13;13.15;;;6.40;;
27201;SDS011;14717;46.924;15.474;2023-02-23T01:13:42;13.25;;;6.53;;
27201;SDS011;14717;46.924;15.474;2023-02-23T01:16:10;13.15;;;6.65;;
27201;SDS011;14717;46.924;15.474;2023-02-23T01:18:37;12.48;;;6.03;;
27201;SDS011;14717;46.924;15.474;2023-02-23T01:21:04;14.80;;;6.20;;
27201;SDS011;14717;46.924;15.474;2023-02-23T01:23:38;13.13;;;6.47;;
27201;SDS011;14717;46.924;15.474;2023-02-23T01:26:03;13.02;;;6.30;;
27201;SDS011;14717;46.924;15.474;2023-02-23T01:28:28;15.75;;;6.40;;
27201;SDS011;14717;46.924;15.474;2023-02-23T01:30:54;15.57;;;7.00;;
27201;SDS011;14717;46.924;15.474;2023-02-23T01:33:19;13.95;;;6.70;;
27201;SDS011;14717;46.924;15.474;2023-02-23T01:35:44;12.40;;;6.53;;
27201;SDS011;14717;46.924;15.474;2023-02-23T01:38:21;15.57;;;6.65;;
27201;SDS011;14717;46.924;15.474;2023-02-23T01:40:46;16.00;;;6.75;;
27201;SDS011;14717;46.924;15.474;2023-02-23T01:43:12;13.85;;;6.85;;
27201;SDS011;14717;46.924;15.474;2023-02-23T01:45:40;14.07;;;7.03;;
27201;SDS011;14717;46.924;15.474;2023-02-23T01:50:41;14.30;;;6.80;;
27201;SDS011;14717;46.924;15.474;2023-02-23T01:53:11;14.45;;;6.80;;
27201;SDS011;14717;46.924;15.474;2023-02-23T01:55:37;16.85;;;7.63;;
27201;SDS011;14717;46.924;15.474;2023-02-23T01:58:10;14.32;;;6.60;;
27201;SDS011;14717;46.924;15.474;2023-02-23T02:00:41;19.15;;;7.93;;
27201;SDS011;14717;46.924;15.474;2023-02-23T02:03:10;13.48;;;7.00;;
27201;SDS011;14717;46.924;15.474;2023-02-23T02:05:39;13.18;;;6.55;;
27201;SDS011;14717;46.924;15.474;2023-02-23T02:08:06;15.93;;;7.43;;
27201;SDS011;14717;46.924;15.474;2023-02-23T02:10:34;13.18;;;6.60;;
27201;SDS011;14717;46.924;15.474;2023-02-23T02:13:04;12.82;;;6.28;;
27201;SDS011;14717;46.924;15.474;2023-02-23T02:15:34;15.30;;;7.45;;
27201;SDS011;14717;46.924;15.474;2023-02-23T02:18:10;13.02;;;6.97;;
27201;SDS011;14717;46.924;15.474;2023-02-23T02:29:06;15.73;;;7.53;;
27201;SDS011;14717;46.924;15.474;2023-02-23T02:40:16;17.10;;;7.05;;
27201;SDS011;14717;46.924;15.474;2023-02-23T02:45:58;16.02;;;6.97;;
27201;SDS011;14717;46.924;15.474;2023-02-23T02:49:03;15.02;;;7.45;;
27201;SDS011;14717;46.924;15.474;2023-02-23T02:51:30;14.50;;;6.90;;
27201;SDS011;14717;46.924;15.474;2023-02-23T02:54:24;19.95;;;7.38;;
27201;SDS011;14717;46.924;15.474;2023-02-23T02:56:57;14.85;;;6.53;;
27201;SDS011;14717;46.924;15.474;2023-02-23T02:59:26;11.52;;;6.53;;
27201;SDS011;14717;46.924;15.474;2023-02-23T03:02:17;15.77;;;7.05;;
27201;SDS011;14717;46.924;15.474;2023-02-23T03:05:14;15.10;;;7.00;;
27201;SDS011;14717;46.924;15.474;2023-02-23T03:11:13;16.02;;;6.88;;
27201;SDS011;14717;46.924;15.474;2023-02-23T03:20:22;17.73;;;7.65;;
27201;SDS011;14717;46.924;15.474;2023-02-23T03:32:50;33.38;;;11.73;;
27201;SDS011;14717;46.924;15.474;2023-02-23T03:38:38;23.20;;;10.25;;
27201;SDS011;14717;46.924;15.474;2023-02-23T03:41:28;25.90;;;9.95;;
27201;SDS011;14717;46.924;15.474;2023-02-23T03:44:16;35.95;;;12.75;;
27201;SDS011;14717;46.924;15.474;2023-02-23T03:47:06;33.53;;;13.70;;
27201;SDS011;14717;46.924;15.474;2023-02-23T03:49:52;31.95;;;13.05;;
27201;SDS011;14717;46.924;15.474;2023-02-23T03:52:41;35.30;;;14.52;;
27201;SDS011;14717;46.924;15.474;2023-02-23T03:55:36;35.88;;;13.90;;
27201;SDS011;14717;46.924;15.474;2023-02-23T03:58:29;35.70;;;13.63;;
27201;SDS011;14717;46.924;15.474;2023-02-23T04:01:16;35.72;;;13.73;;
27201;SDS011;14717;46.924;15.474;2023-02-23T04:04:02;40.42;;;15.63;;
27201;SDS011;14717;46.924;15.474;2023-02-23T04:06:49;33.35;;;14.10;;
27201;SDS011;14717;46.924;15.474;2023-02-23T04:09:34;34.55;;;14.23;;
27201;SDS011;14717;46.924;15.474;2023-02-23T04:15:27;29.30;;;13.07;;
27201;SDS011;14717;46.924;15.474;2023-02-23T04:17:56;30.27;;;11.70;;
27201;SDS011;14717;46.924;15.474;2023-02-23T04:20:22;30.48;;;12.77;;
27201;SDS011;14717;46.924;15.474;2023-02-23T04:22:49;31.20;;;12.50;;
27201;SDS011;14717;46.924;15.474;2023-02-23T04:25:14;29.58;;;12.32;;
27201;SDS011;14717;46.924;15.474;2023-02-23T04:27:40;25.42;;;11.88;;
27201;SDS011;14717;46.924;15.474;2023-02-23T04:30:06;28.85;;;13.18;;
27201;SDS011;14717;46.924;15.474;2023-02-23T04:32:33;28.92;;;12.13;;
27201;SDS011;14717;46.924;15.474;2023-02-23T04:34:58;26.15;;;11.82;;
27201;SDS011;14717;46.924;15.474;2023-02-23T04:37:23;26.27;;;11.18;;
27201;SDS011;14717;46.924;15.474;2023-02-23T04:39:49;26.05;;;11.05;;
27201;SDS011;14717;46.924;15.474;2023-02-23T04:42:17;26.55;;;11.85;;
27201;SDS011;14717;46.924;15.474;2023-02-23T04:44:42;25.92;;;11.73;;
27201;SDS011;14717;46.924;15.474;2023-02-23T04:47:09;29.42;;;12.57;;
27201;SDS011;14717;46.924;15.474;2023-02-23T04:49:34;24.85;;;10.80;;
27201;SDS011;14717;46.924;15.474;2023-02-23T04:52:00;22.35;;;10.30;;
27201;SDS011;14717;46.924;15.474;2023-02-23T04:54:25;22.20;;;10.43;;
27201;SDS011;14717;46.924;15.474;2023-02-23T04:56:50;21.30;;;9.82;;
27201;SDS011;14717;46.924;15.474;2023-02-23T04:59:16;19.40;;;9.07;;
27201;SDS011;14717;46.924;15.474;2023-02-23T05:01:42;20.92;;;8.60;;
27201;SDS011;14717;46.924;15.474;2023-02-23T05:04:07;19.38;;;8.70;;
27201;SDS011;14717;46.924;15.474;2023-02-23T05:06:33;18.80;;;8.27;;
27201;SDS011;14717;46.924;15.474;2023-02-23T05:08:58;19.45;;;8.77;;
27201;SDS011;14717;46.924;15.474;2023-02-23T05:11:23;24.13;;;8.98;;
27201;SDS011;14717;46.924;15.474;2023-02-23T05:13:50;17.73;;;8.23;;
27201;SDS011;14717;46.924;15.474;2023-02-23T05:16:16;18.02;;;8.15;;
27201;SDS011;14717;46.924;15.474;2023-02-23T05:18:42;21.35;;;9.40;;
27201;SDS011;14717;46.924;15.474;2023-02-23T05:21:07;21.33;;;9.05;;
27201;SDS011;14717;46.924;15.474;2023-02-23T05:23:33;20.08;;;8.13;;
27201;SDS011;14717;46.924;15.474;2023-02-23T05:26:01;18.38;;;7.93;;
27201;SDS011;14717;46.924;15.474;2023-02-23T05:28:28;17.98;;;7.88;;
27201;SDS011;14717;46.924;15.474;2023-02-23T05:30:53;15.18;;;7.70;;
27201;SDS011;14717;46.924;15.474;2023-02-23T05:33:19;18.48;;;8.02;;
27201;SDS011;14717;46.924;15.474;2023-02-23T05:35:45;15.65;;;7.13;;
27201;SDS011;14717;46.924;15.474;2023-02-23T05:38:11;17.40;;;7.75;;
27201;SDS011;14717;46.924;15.474;2023-02-23T05:40:36;19.08;;;8.07;;
27201;SDS011;14717;46.924;15.474;2023-02-23T05:43:03;14.27;;;7.55;;
27201;SDS011;14717;46.924;15.474;2023-02-23T05:45:29;16.95;;;7.97;;
27201;SDS011;14717;46.924;15.474;2023-02-23T05:47:54;15.65;;;7.40;;
27201;SDS011;14717;46.924;15.474;2023-02-23T05:50:20;44.25;;;15.00;;
27201;SDS011;14717;46.924;15.474;2023-02-23T05:52:45;54.15;;;18.70;;
27201;SDS011;14717;46.924;15.474;2023-02-23T05:55:11;36.80;;;13.73;;
27201;SDS011;14717;46.924;15.474;2023-02-23T05:57:37;26.40;;;10.70;;
27201;SDS011;14717;46.924;15.474;2023-02-23T06:00:04;22.52;;;10.43;;
27201;SDS011;14717;46.924;15.474;2023-02-23T06:02:31;21.20;;;10.63;;
27201;SDS011;14717;46.924;15.474;2023-02-23T06:04:56;24.80;;;11.60;;
27201;SDS011;14717;46.924;15.474;2023-02-23T06:07:22;23.67;;;11.70;;
27201;SDS011;14717;46.924;15.474;2023-02-23T06:09:47;22.65;;;10.70;;
27201;SDS011;14717;46.924;15.474;2023-02-23T06:12:12;25.25;;;11.80;;
27201;SDS011;14717;46.924;15.474;2023-02-23T06:14:38;26.15;;;11.70;;
27201;SDS011;14717;46.924;15.474;2023-02-23T06:17:03;25.10;;;11.38;;
27201;SDS011;14717;46.924;15.474;2023-02-23T06:19:29;25.25;;;11.45;;
27201;SDS011;14717;46.924;15.474;2023-02-23T06:21:55;27.92;;;12.05;;
27201;SDS011;14717;46.924;15.474;2023-02-23T06:24:21;23.55;;;10.70;;
27201;SDS011;14717;46.924;15.474;2023-02-23T06:26:47;24.67;;;11.90;;
27201;SDS011;14717;46.924;15.474;2023-02-23T06:29:13;21.80;;;10.32;;
27201;SDS011;14717;46.924;15.474;2023-02-23T06:31:38;19.10;;;10.85;;
27201;SDS011;14717;46.924;15.474;2023-02-23T06:34:04;22.38;;;11.10;;
27201;SDS011;14717;46.924;15.474;2023-02-23T06:36:29;25.15;;;11.05;;
27201;SDS011;14717;46.924;15.474;2023-02-23T06:38:55;25.30;;;10.68;;
27201;SDS011;14717;46.924;15.474;2023-02-23T06:41:22;20.52;;;10.50;;
27201;SDS011;14717;46.924;15.474;2023-02-23T06:43:47;23.23;;;9.80;;
27201;SDS011;14717;46.924;15.474;2023-02-23T06:46:13;21.55;;;9.80;;
27201;SDS011;14717;46.924;15.474;2023-02-23T06:48:38;22.80;;;10.57;;
27201;SDS011;14717;46.924;15.474;2023-02-23T06:53:30;22.17;;;9.40;;
27201;SDS011;14717;46.924;15.474;2023-02-23T06:55:55;24.33;;;9.95;;
27201;SDS011;14717;46.924;15.474;2023-02-23T06:58:21;24.75;;;10.65;;
27201;SDS011;14717;46.924;15.474;2023-02-23T07:00:46;23.55;;;11.02;;
27201;SDS011;14717;46.924;15.474;2023-02-23T07:03:12;25.20;;;11.35;;
27201;SDS011;14717;46.924;15.474;2023-02-23T07:05:37;21.13;;;10.07;;
27201;SDS011;14717;46.924;15.474;2023-02-23T07:08:02;20.20;;;9.38;;
27201;SDS011;14717;46.924;15.474;2023-02-23T07:10:28;20.38;;;10.60;;
27201;SDS011;14717;46.924;15.474;2023-02-23T07:12:53;24.55;;;10.18;;
27201;SDS011;14717;46.924;15.474;2023-02-23T07:15:19;18.83;;;9.95;;
27201;SDS011;14717;46.924;15.474;2023-02-23T07:17:45;21.88;;;9.40;;
27201;SDS011;14717;46.924;15.474;2023-02-23T07:20:13;22.10;;;10.30;;
27201;SDS011;14717;46.924;15.474;2023-02-23T07:22:40;17.33;;;8.75;;
27201;SDS011;14717;46.924;15.474;2023-02-23T07:25:05;17.42;;;8.70;;
27201;SDS011;14717;46.924;15.474;2023-02-23T07:27:32;22.08;;;9.32;;
27201;SDS011;14717;46.924;15.474;2023-02-23T07:29:57;20.38;;;9.45;;
27201;SDS011;14717;46.924;15.474;2023-02-23T07:32:23;17.50;;;9.05;;
27201;SDS011;14717;46.924;15.474;2023-02-23T07:34:48;22.35;;;10.30;;
27201;SDS011;14717;46.924;15.474;2023-02-23T07:37:14;19.38;;;9.90;;
27201;SDS011;14717;46.924;15.474;2023-02-23T07:39:39;21.20;;;10.25;;
27201;SDS011;14717;46.924;15.474;2023-02-23T07:42:04;24.58;;;9.80;;
27201;SDS011;14717;46.924;15.474;2023-02-23T07:44:30;18.60;;;9.95;;
27201;SDS011;14717;46.924;15.474;2023-02-23T07:46:55;19.63;;;8.88;;
27201;SDS011;14717;46.924;15.474;2023-02-23T07:49:21;20.20;;;9.45;;
27201;SDS011;14717;46.924;15.474;2023-02-23T07:51:46;19.45;;;9.02;;
27201;SDS011;14717;46.924;15.474;2023-02-23T07:54:12;21.10;;;8.93;;
27201;SDS011;14717;46.924;15.474;2023-02-23T07:56:37;19.88;;;9.43;;
27201;SDS011;14717;46.924;15.474;2023-02-23T07:59:03;19.25;;;8.85;;
27201;SDS011;14717;46.924;15.474;2023-02-23T08:01:28;23.80;;;9.80;;
27201;SDS011;14717;46.924;15.474;2023-02-23T08:03:53;21.13;;;10.07;;
27201;SDS011;14717;46.924;15.474;2023-02-23T08:06:19;25.85;;;11.45;;
27201;SDS011;14717;46.924;15.474;2023-02-23T08:08:45;20.85;;;10.73;;
27201;SDS011;14717;46.924;15.474;2023-02-23T08:11:10;26.83;;;11.57;;
27201;SDS011;14717;46.924;15.474;2023-02-23T08:13:36;27.33;;;12.00;;
27201;SDS011;14717;46.924;15.474;2023-02-23T08:16:01;25.92;;;12.20;;
27201;SDS011;14717;46.924;15.474;2023-02-23T08:18:28;25.80;;;12.52;;
27201;SDS011;14717;46.924;15.474;2023-02-23T08:20:56;27.33;;;13.40;;
27201;SDS011;14717;46.924;15.474;2023-02-23T08:23:27;24.40;;;12.35;;
27201;SDS011;14717;46.924;15.474;2023-02-23T08:25:53;25.02;;;13.07;;
27201;SDS011;14717;46.924;15.474;2023-02-23T08:28:19;28.55;;;14.25;;
27201;SDS011;14717;46.924;15.474;2023-02-23T08:30:44;25.52;;;13.60;;
27201;SDS011;14717;46.924;15.474;2023-02-23T08:33:10;28.88;;;13.07;;
27201;SDS011;14717;46.924;15.474;2023-02-23T08:35:35;25.85;;;12.82;;
27201;SDS011;14717;46.924;15.474;2023-02-23T08:38:00;27.20;;;13.35;;
27201;SDS011;14717;46.924;15.474;2023-02-23T08:40:26;24.13;;;12.48;;
27201;SDS011;14717;46.924;15.474;2023-02-23T08:42:51;26.77;;;12.63;;
27201;SDS011;14717;46.924;15.474;2023-02-23T08:45:17;27.35;;;13.55;;
27201;SDS011;14717;46.924;15.474;2023-02-23T08:47:43;25.65;;;12.45;;
27201;SDS011;14717;46.924;15.474;2023-02-23T08:50:09;26.10;;;12.15;;
27201;SDS011;14717;46.924;15.474;2023-02-23T08:55:01;25.08;;;12.45;;
27201;SDS011;14717;46.924;15.474;2023-02-23T08:57:26;25.30;;;12.07;;
27201;SDS011;14717;46.924;15.474;2023-02-23T08:59:52;28.45;;;12.43;;
27201;SDS011;14717;46.924;15.474;2023-02-23T09:02:17;22.45;;;12.23;;
27201;SDS011;14717;46.924;15.474;2023-02-23T09:04:43;24.25;;;11.88;;
27201;SDS011;14717;46.924;15.474;2023-02-23T09:07:09;26.70;;;12.23;;
27201;SDS011;14717;46.924;15.474;2023-02-23T09:09:38;26.98;;;12.18;;
27201;SDS011;14717;46.924;15.474;2023-02-23T09:12:04;26.75;;;12.32;;
27201;SDS011;14717;46.924;15.474;2023-02-23T09:14:29;23.77;;;11.35;;
27201;SDS011;14717;46.924;15.474;2023-02-23T09:19:21;26.88;;;12.07;;
27201;SDS011;14717;46.924;15.474;2023-02-23T09:21:46;22.67;;;12.13;;
27201;SDS011;14717;46.924;15.474;2023-02-23T09:24:12;25.77;;;11.75;;
27201;SDS011;14717;46.924;15.474;2023-02-23T09:26:37;25.77;;;12.20;;
27201;SDS011;14717;46.924;15.474;2023-02-23T09:29:04;22.83;;;12.00;;
27201;SDS011;14717;46.924;15.474;2023-02-23T09:33:55;21.67;;;10.63;;
27201;SDS011;14717;46.924;15.474;2023-02-23T09:36:22;26.75;;;11.68;;
27201;SDS011;14717;46.924;15.474;2023-02-23T09:38:50;22.70;;;11.27;;
27201;SDS011;14717;46.924;15.474;2023-02-23T09:44:09;22.92;;;10.63;;
27201;SDS011;14717;46.924;15.474;2023-02-23T09:49:17;24.77;;;11.20;;
27201;SDS011;14717;46.924;15.474;2023-02-23T09:51:47;24.80;;;11.68;;
27201;SDS011;14717;46.924;15.474;2023-02-23T09:54:21;31.42;;;11.43;;
27201;SDS011;14717;46.924;15.474;2023-02-23T09:56:50;24.58;;;11.60;;
27201;SDS011;14717;46.924;15.474;2023-02-23T10:07:04;24.38;;;10.80;;
27201;SDS011;14717;46.924;15.474;2023-02-23T10:17:38;18.50;;;10.07;;
27201;SDS011;14717;46.924;15.474;2023-02-23T10:23:01;22.35;;;10.77;;
27201;SDS011;14717;46.924;15.474;2023-02-23T10:25:32;22.45;;;10.88;;
27201;SDS011;14717;46.924;15.474;2023-02-23T10:28:02;22.35;;;11.75;;
27201;SDS011;14717;46.924;15.474;2023-02-23T10:30:32;26.27;;;11.27;;
27201;SDS011;14717;46.924;15.474;2023-02-23T10:35:49;22.45;;;11.52;;
27201;SDS011;14717;46.924;15.474;2023-02-23T10:38:19;24.17;;;11.88;;
27201;SDS011;14717;46.924;15.474;2023-02-23T10:40:54;27.50;;;11.85;;
27201;SDS011;14717;46.924;15.474;2023-02-23T10:43:20;27.73;;;11.32;;
27201;SDS011;14717;46.924;15.474;2023-02-23T10:45:47;27.70;;;11.38;;
27201;SDS011;14717;46.924;15.474;2023-02-23T10:48:24;24.75;;;11.93;;
27201;SDS011;14717;46.924;15.474;2023-02-23T10:50:54;30.25;;;13.32;;
27201;SDS011;14717;46.924;15.474;2023-02-23T10:53:29;26.95;;;13.10;;
27201;SDS011;14717;46.924;15.474;2023-02-23T10:56:09;32.60;;;12.82;;
27201;SDS011;14717;46.924;15.474;2023-02-23T10:58:41;24.90;;;11.73;;
27201;SDS011;14717;46.924;15.474;2023-02-23T11:01:10;25.65;;;11.80;;
27201;SDS011;14717;46.924;15.474;2023-02-23T11:08:55;29.30;;;13.38;;
27201;SDS011;14717;46.924;15.474;2023-02-23T11:11:22;23.42;;;11.30;;
27201;SDS011;14717;46.924;15.474;2023-02-23T11:13:50;25.27;;;10.25;;
27201;SDS011;14717;46.924;15.474;2023-02-23T11:16:37;23.77;;;11.13;;
27201;SDS011;14717;46.924;15.474;2023-02-23T11:19:03;26.90;;;11.32;;
27201;SDS011;14717;46.924;15.474;2023-02-23T11:21:39;26.70;;;11.85;;
27201;SDS011;14717;46.924;15.474;2023-02-23T11:24:18;31.10;;;12.85;;
27201;SDS011;14717;46.924;15.474;2023-02-23T11:26:51;26.35;;;11.57;;
27201;SDS011;14717;46.924;15.474;2023-02-23T11:29:34;26.85;;;13.00;;
27201;SDS011;14717;46.924;15.474;2023-02-23T11:34:38;22.92;;;12.27;;
27201;SDS011;14717;46.924;15.474;2023-02-23T11:37:18;26.35;;;12.90;;
27201;SDS011;14717;46.924;15.474;2023-02-23T11:39:58;25.02;;;12.80;;
27201;SDS011;14717;46.924;15.474;2023-02-23T11:42:29;32.35;;;12.43;;
27201;SDS011;14717;46.924;15.474;2023-02-23T11:47:29;28.05;;;12.43;;
27201;SDS011;14717;46.924;15.474;2023-02-23T11:49:56;24.08;;;12.00;;
27201;SDS011;14717;46.924;15.474;2023-02-23T11:52:23;29.38;;;12.45;;
27201;SDS011;14717;46.924;15.474;2023-02-23T11:54:51;27.65;;;12.43;;
27201;SDS011;14717;46.924;15.474;2023-02-23T11:57:28;24.42;;;12.23;;
27201;SDS011;14717;46.924;15.474;2023-02-23T11:59:56;27.52;;;12.07;;
27201;SDS011;14717;46.924;15.474;2023-02-23T12:02:27;28.77;;;11.80;;
27201;SDS011;14717;46.924;15.474;2023-02-23T12:07:40;23.27;;;11.32;;
27201;SDS011;14717;46.924;15.474;2023-02-23T12:12:59;24.05;;;11.98;;
27201;SDS011;14717;46.924;15.474;2023-02-23T12:15:36;24.60;;;11.32;;
27201;SDS011;14717;46.924;15.474;2023-02-23T12:20:57;24.48;;;12.32;;
27201;SDS011;14717;46.924;15.474;2023-02-23T12:23:45;24.17;;;12.23;;
27201;SDS011;14717;46.924;15.474;2023-02-23T12:26:17;31.77;;;12.52;;
27201;SDS011;14717;46.924;15.474;2023-02-23T12:28:56;27.38;;;11.65;;
27201;SDS011;14717;46.924;15.474;2023-02-23T12:31:50;23.00;;;11.95;;
27201;SDS011;14717;46.924;15.474;2023-02-23T12:34:24;28.90;;;12.98;;
27201;SDS011;14717;46.924;15.474;2023-02-23T12:36:56;26.45;;;13.00;;
27201;SDS011;14717;46.924;15.474;2023-02-23T12:39:45;27.15;;;13.02;;
27201;SDS011;14717;46.924;15.474;2023-02-23T12:42:19;26.67;;;12.98;;
27201;SDS011;14717;46.924;15.474;2023-02-23T12:44:54;25.88;;;12.93;;
27201;SDS011;14717;46.924;15.474;2023-02-23T12:52:53;28.15;;;12.70;;
27201;SDS011;14717;46.924;15.474;2023-02-23T12:58:06;29.75;;;13.65;;
27201;SDS011;14717;46.924;15.474;2023-02-23T13:03:30;28.98;;;13.13;;
27201;SDS011;14717;46.924;15.474;2023-02-23T13:09:17;27.20;;;14.65;;
27201;SDS011;14717;46.924;15.474;2023-02-23T13:12:16;27.65;;;13.48;;
27201;SDS011;14717;46.924;15.474;2023-02-23T13:17:39;28.58;;;13.40;;
27201;SDS011;14717;46.924;15.474;2023-02-23T13:25:36;29.08;;;13.85;;
27201;SDS011;14717;46.924;15.474;2023-02-23T13:28:20;23.58;;;11.88;;
27201;SDS011;14717;46.924;15.474;2023-02-23T13:30:59;25.92;;;12.27;;
27201;SDS011;14717;46.924;15.474;2023-02-23T13:33:26;27.77;;;12.63;;
27201;SDS011;14717;46.924;15.474;2023-02-23T13:35:55;25.50;;;12.85;;
27201;SDS011;14717;46.924;15.474;2023-02-23T13:50:03;26.45;;;12.40;;
27201;SDS011;14717;46.924;15.474;2023-02-23T13:52:52;27.90;;;13.35;;
27201;SDS011;14717;46.924;15.474;2023-02-23T13:57:51;24.77;;;12.40;;
27201;SDS011;14717;46.924;15.474;2023-02-23T14:00:19;23.50;;;12.73;;
27201;SDS011;14717;46.924;15.474;2023-02-23T14:02:46;26.33;;;12.75;;
27201;SDS011;14717;46.924;15.474;2023-02-23T14:05:19;25.48;;;12.88;;
27201;SDS011;14717;46.924;15.474;2023-02-23T14:07:52;23.48;;;12.02;;
27201;SDS011;14717;46.924;15.474;2023-02-23T14:10:22;23.90;;;12.13;;
27201;SDS011;14717;46.924;15.474;2023-02-23T14:13:02;26.60;;;12.43;;
27201;SDS011;14717;46.924;15.474;2023-02-23T14:16:11;25.55;;;11.52;;
27201;SDS011;14717;46.924;15.474;2023-02-23T14:21:56;25.58;;;12.48;;
27201;SDS011;14717;46.924;15.474;2023-02-23T14:24:23;23.92;;;11.32;;
27201;SDS011;14717;46.924;15.474;2023-02-23T14:29:28;24.70;;;12.02;;
27201;SDS011;14717;46.924;15.474;2023-02-23T14:37:33;21.08;;;11.07;;
27201;SDS011;14717;46.924;15.474;2023-02-23T14:42:46;24.65;;;11.23;;
27201;SDS011;14717;46.924;15.474;2023-02-23T14:45:22;26.58;;;12.50;;
27201;SDS011;14717;46.924;15.474;2023-02-23T14:47:51;23.33;;;11.85;;
27201;SDS011;14717;46.924;15.474;2023-02-23T14:50:27;23.83;;;11.98;;
27201;SDS011;14717;46.924;15.474;2023-02-23T14:52:54;23.13;;;11.13;;
27201;SDS011;14717;46.924;15.474;2023-02-23T14:55:25;23.20;;;11.65;;
27201;SDS011;14717;46.924;15.474;2023-02-23T14:57:57;23.45;;;11.73;;
27201;SDS011;14717;46.924;15.474;2023-02-23T15:00:27;27.95;;;11.75;;
27201;SDS011;14717;46.924;15.474;2023-02-23T15:05:26;26.10;;;11.60;;
27201;SDS011;14717;46.924;15.474;2023-02-23T15:08:05;21.50;;;10.55;;
27201;SDS011;14717;46.924;15.474;2023-02-23T15:10:38;25.88;;;11.45;;
27201;SDS011;14717;46.924;15.474;2023-02-23T15:13:10;22.60;;;11.60;;
27201;SDS011;14717;46.924;15.474;2023-02-23T15:15:51;23.88;;;11.65;;
27201;SDS011;14717;46.924;15.474;2023-02-23T15:18:27;23.35;;;11.05;;
27201;SDS011;14717;46.924;15.474;2023-02-23T15:20:56;20.35;;;10.77;;
27201;SDS011;14717;46.924;15.474;2023-02-23T15:23:23;25.25;;;11.00;;
27201;SDS011;14717;46.924;15.474;2023-02-23T15:25:48;23.70;;;11.85;;
27201;SDS011;14717;46.924;15.474;2023-02-23T15:28:25;25.17;;;12.30;;
27201;SDS011;14717;46.924;15.474;2023-02-23T15:30:54;26.02;;;12.23;;
27201;SDS011;14717;46.924;15.474;2023-02-23T15:33:23;25.42;;;12.10;;
27201;SDS011;14717;46.924;15.474;2023-02-23T15:38:27;28.27;;;12.63;;
27201;SDS011;14717;46.924;15.474;2023-02-23T15:40:59;23.92;;;11.57;;
27201;SDS011;14717;46.924;15.474;2023-02-23T15:43:28;23.45;;;11.52;;
27201;SDS011;14717;46.924;15.474;2023-02-23T15:45:54;22.70;;;12.65;;
27201;SDS011;14717;46.924;15.474;2023-02-23T15:48:23;25.20;;;12.30;;
27201;SDS011;14717;46.924;15.474;2023-02-23T15:50:55;25.33;;;12.32;;
27201;SDS011;14717;46.924;15.474;2023-02-23T15:55:56;22.08;;;11.85;;
27201;SDS011;14717;46.924;15.474;2023-02-23T15:58:29;25.50;;;12.25;;
27201;SDS011;14717;46.924;15.474;2023-02-23T16:03:33;26.52;;;12.55;;
27201;SDS011;14717;46.924;15.474;2023-02-23T16:06:02;27.67;;;12.23;;
27201;SDS011;14717;46.924;15.474;2023-02-23T16:08:32;22.63;;;11.65;;
27201;SDS011;14717;46.924;15.474;2023-02-23T16:11:09;25.00;;;12.60;;
27201;SDS011;14717;46.924;15.474;2023-02-23T16:13:42;22.50;;;12.35;;
27201;SDS011;14717;46.924;15.474;2023-02-23T16:16:10;27.35;;;13.25;;
27201;SDS011;14717;46.924;15.474;2023-02-23T16:18:42;25.80;;;11.98;;
27201;SDS011;14717;46.924;15.474;2023-02-23T16:21:18;24.95;;;12.10;;
27201;SDS011;14717;46.924;15.474;2023-02-23T16:23:49;25.90;;;12.77;;
27201;SDS011;14717;46.924;15.474;2023-02-23T16:26:25;24.65;;;12.23;;
27201;SDS011;14717;46.924;15.474;2023-02-23T16:29:13;23.35;;;11.73;;
27201;SDS011;14717;46.924;15.474;2023-02-23T16:31:43;27.02;;;12.00;;
27201;SDS011;14717;46.924;15.474;2023-02-23T16:36:47;23.45;;;11.32;;
27201;SDS011;14717;46.924;15.474;2023-02-23T16:39:14;22.52;;;11.45;;
27201;SDS011;14717;46.924;15.474;2023-02-23T16:41:43;22.15;;;11.52;;
27201;SDS011;14717;46.924;15.474;2023-02-23T16:44:13;27.85;;;13.43;;
27201;SDS011;14717;46.924;15.474;2023-02-23T16:49:25;21.60;;;11.27;;
27201;SDS011;14717;46.924;15.474;2023-02-23T16:51:54;28.92;;;13.10;;
27201;SDS011;14717;46.924;15.474;2023-02-23T16:54:20;22.10;;;12.82;;
27201;SDS011;14717;46.924;15.474;2023-02-23T16:56:46;22.95;;;12.50;;
27201;SDS011;14717;46.924;15.474;2023-02-23T16:59:12;26.42;;;13.45;;
27201;SDS011;14717;46.924;15.474;2023-02-23T17:01:42;29.42;;;13.32;;
27201;SDS011;14717;46.924;15.474;2023-02-23T17:04:13;27.63;;;13.60;;
27201;SDS011;14717;46.924;15.474;2023-02-23T17:06:41;36.60;;;15.73;;
27201;SDS011;14717;46.924;15.474;2023-02-23T17:09:08;29.80;;;15.40;;
27201;SDS011;14717;46.924;15.474;2023-02-23T17:11:35;27.13;;;13.75;;
27201;SDS011;14717;46.924;15.474;2023-02-23T17:14:00;28.23;;;13.80;;
27201;SDS011;14717;46.924;15.474;2023-02-23T17:16:26;29.77;;;13.63;;
27201;SDS011;14717;46.924;15.474;2023-02-23T17:18:51;24.52;;;13.45;;
27201;SDS011;14717;46.924;15.474;2023-02-23T17:21:17;25.85;;;13.18;;
27201;SDS011;14717;46.924;15.474;2023-02-23T17:23:47;26.20;;;12.77;;